• Join FlightAware (Why Join?)
  • Login
  • US Flag 
10:43PM EDT


 

Airport Tracker/Info


-or-


 

Live Flight TrackerFlight Track Log ✈ N8420F ✈ 06-Apr-2014 ✈ KILG - KGAI

Flight Track Log - Related Links

Times and Time Zones

All times are in EDT time to prevent confusion due to time zone crossing. See the N8420F flight status page for this flight to view local times or setup timezone preferences in your user account.

Time Position Orientation Groundspeed Altitude Reporting Facility
EDT Latitude Longitude Course Direction KTS MPH feet Rate Location/Type
01:57PM 39.6421 -75.5461 149° Southeast 94 108 1,800  Level FlightAware ADS-B
01:57PM 39.6388 -75.5447 178° South 96 110 2,000 660 Climbing FlightAware ADS-B
01:58PM 39.6371 -75.5446 203° Southwest 99 114 2,000 1,200 Level FlightAware ADS-B
01:58PM 39.6291 -75.5584 281° West 88 101 2,600 1,200 Climbing FlightAware ADS-B (KWWD)
01:58PM 39.6323 -75.5670 295° West 91 105 2,800 480 Climbing FlightAware ADS-B (KWWD)
01:58PM 39.6319 -75.5660 297° West 107 123 2,900 480 Climbing FlightAware ADS-B
01:59PM 39.6383 -75.5815 298° West 111 128 3,100 540 Climbing FlightAware ADS-B
01:59PM 39.6422 -75.5908 299° West 116 133 3,200 480 Climbing FlightAware ADS-B
02:00PM 39.6539 -75.6186 299° West 123 142 3,600 420 Climbing FlightAware ADS-B
02:00PM 39.6596 -75.6319 299° West 123 142 3,700 120 Climbing FlightAware ADS-B
02:00PM 39.6656 -75.6461 299° West 132 152 3,700  Level FlightAware ADS-B
02:01PM 39.6698 -75.6564 278° West 136 157 3,700  Level FlightAware ADS-B
02:01PM 39.6577 -75.6274 299° West 123 142 3,700  Level FlightAware ADS-B (KPHL)
02:01PM 39.6680 -75.6928 259° West 137 158 3,700  Level FlightAware ADS-B
02:02PM 39.6658 -75.7076 259° West 136 157 3,700  Level FlightAware ADS-B (KPHL)
02:02PM 39.6645 -75.7170 260° West 137 158 3,700  Level FlightAware ADS-B (KPHL)
02:02PM 39.6622 -75.7340 260° West 137 158 3,700  Level FlightAware ADS-B (KPHL)
02:03PM 39.6576 -75.7700 260° West 137 158 3,700  Level FlightAware ADS-B (KPHL)
02:03PM 39.6550 -75.7897 261° West 139 160 3,700  Level FlightAware ADS-B
02:04PM 39.6530 -75.8054 260° West 138 159 3,700  Level FlightAware ADS-B (KPHL)
02:04PM 39.6512 -75.8194 260° West 138 159 3,700  Level FlightAware ADS-B (KPHL)
02:04PM 39.6477 -75.8469 264° West 138 159 3,700 240 Level FlightAware ADS-B (KWWD)
02:05PM 39.6444 -75.8656 264° West 137 158 4,000  Climbing New York Center
02:07PM 39.6444 -75.8727 260° West 138 159 3,700  Descending FlightAware ADS-B (KAPG)
02:08PM 39.6333 -76.0000 260° West 138 159 4,000  Climbing Potomac TRACON
02:13PM 39.5913 -76.2812 261° West 136 157 3,700 -60 Descending FlightAware ADS-B (KAPG)
02:14PM 39.5888 -76.3001 260° West 135 155 3,700  Level FlightAware ADS-B (KAPG)
02:14PM 39.5865 -76.3169 261° West 135 155 3,700  Level FlightAware ADS-B (KAPG)
02:17PM 39.5690 -76.4457 260° West 143 165 3,700  Level FlightAware ADS-B (KAPG)
02:17PM 39.5656 -76.4715 260° West 140 161 3,700  Level FlightAware ADS-B (KAPG)
02:18PM 39.5630 -76.4913 260° West 138 159 3,700  Level FlightAware ADS-B (KAPG)
02:18PM 39.5613 -76.5043 260° West 138 159 3,700  Level FlightAware ADS-B (KAPG)
02:18PM 39.5589 -76.5220 260° West 139 160 3,700 180 Level FlightAware ADS-B (KAPG)
02:20PM 39.5500 -76.6000 260° West 133 153 4,100 120 Climbing Potomac TRACON
02:21PM 39.5500 -76.6500 270° West 135 155 4,100 -60 Level Potomac TRACON
02:22PM 39.5333 -76.6833 237° Southwest 135 155 4,000  Descending Potomac TRACON
02:23PM 39.5333 -76.7333 270° West 138 159 4,100  Climbing Potomac TRACON
02:24PM 39.5167 -76.7833 247° West 141 162 4,000 -60 Descending Potomac TRACON
02:25PM 39.5167 -76.8333 270° West 137 158 4,000  Level Potomac TRACON
02:26PM 39.5167 -76.8833 270° West 137 158 4,000  Level Potomac TRACON
02:27PM 39.5000 -76.9167 237° Southwest 138 159 4,000 -120 Level Potomac TRACON
02:28PM 39.4667 -76.9500 218° Southwest 143 165 3,800 -420 Descending Potomac TRACON
02:29PM 39.4167 -76.9667 194° South 158 182 3,200 -480 Descending Potomac TRACON
02:30PM 39.3833 -77.0000 218° Southwest 143 165 2,900 -180 Descending Potomac TRACON
02:31PM 39.3500 -77.0333 218° Southwest 137 158 2,900 -120 Level Potomac TRACON
02:32PM 39.3167 -77.0500 201° Southwest 137 158 2,700 -300 Descending Potomac TRACON
02:33PM 39.2833 -77.0833 218° Southwest 148 170 2,400 -360 Descending Potomac TRACON
02:34PM 39.2500 -77.1000 201° Southwest 155 178 2,000 -240 Descending Potomac TRACON
02:35PM 39.2167 -77.1333 218° Southwest 135 155 1,900 -300 Descending Potomac TRACON
02:36PM 39.1833 -77.1667 218° Southwest 134 154 1,400 -600 Descending Potomac TRACON
02:38PM 39.1667 -77.1500 194° South  Level FlightAware Approximate
02:45PM 39.1683 -77.1660 194° South  Level Estimated
02:46PM 39.1683 -77.1660 98° East  Level Estimated
02:47PM 39.1683 -77.1660 194° South  Level Estimated
02:48PM 39.1683 -77.1660 98° East  Level Estimated
02:49PM 39.1683 -77.1660 194° South  Level Estimated
02:50PM 39.1683 -77.1660 98° East  Level Estimated